Portada
METAR-TAF:

METAR-TAF

Aeropuertos :

Anchorage, Alaska, Estados Unidos

Aeropuerto Internacional Ted Stevens Anchorage

latitud: 61-10-28N, longitud: 149-59-46W, altitud: 44 m

Observación

El informe se hizo hace 1 hora y 6 minutos, a las 18:53 UTC
Viento calma
Temperatura -2°C
Humedad 80%
Presión 996 hPa
Visibilidad: 16.1 km
Escasas nubes a una altura de 400 ft
Cielo nuboso a una altura de 9500 ft

METAR: PANC 181853Z 00000KT 10SM FEW004 BKN095 M02/M05 A2941 RMK AO2 SLP961 T10221050 $

Hora: 10:59 (19:59 UTC)

Pronóstico

El informe se hizo hace 2 horas y 20 minutos, a las 17:39 UTC
Pronóstico válido del 18 a las 18 UTC al 19 a las 24 UTC
Viento 4 kt con dirección variable
Visibilidad: 10 km
Cielo nuboso a una altura de 9000 ft

TAF: PANC 181739Z 1818/1924 VRB04KT P6SM BKN090

Observaciones y pronósticos meteorológicos de más de 4000 aeropuertos (mensajes METAR y TAF).

Los puntos amarillos y rojos representan las estaciones disponibles.

Ponga el ratón en el punto deseado para ver el nombre de la estación.

Haga clic para ver las observaciones y los pronósticos meteorológicos.

Para cambiar el mapa : haga clic en los botones verdes con una cruz de color negro para hacer un zoom, en el botón verde con un guión para alejar o en las flechas verdes para mapas adyacentes.


METAR-TAF: